West Stewartstown, New Hampshire
Current Conditions -  °F | °C
As of 4:27 PM on Friday 28 Nov 2014 (Local Time) from CYSC Reporting Station
Light Snow Light Snow  
Wind Chill: 12°   Ceiling: 1800
Heat Index: 21°   Visibility: 3mi
Dew Point: 19°   Wind: 8mph
Humidity: 93%   Direction: 250°WSW
Pressure: 30.06"   Gusts: NA
Location:  45°N, 71.53°W
Report Text: CYSC 282127Z AUTO 25007KT 3SM -SN SCT014 BKN018 OVC043 M06/M07 A3006 RMK SLP196
Loading
Personal Weather Stations






























Interactive Weather Map New forecast layout! Learn more

10-Day Weather Forecast

Advertisements
Track Severe Weather on mobile